| Servicio Meteorologico Nacional.

Pronóstico antártico

Pronóstico antártico

TAF Marambio
 

FTAA SAWB 272300
TAF SAWB 272300Z 2800/2824 32015KT CAVOK TX06/2812Z TN01/2824Z
BECMG 2803/2805 VRB005KT
BECMG 2812/2815 34025G35KT 9999 FEW006
BECMG 2818/2820 3402535KT 5000 BR SCT006=